sensor_id;sensor_type;location;lat;lon;timestamp;P1;durP1;ratioP1;P2;durP2;ratioP2
22236;SDS011;11287;48.122;11.536;2023-05-20T00:00:23;5.38;;;4.78;;
22236;SDS011;11287;48.122;11.536;2023-05-20T00:02:49;5.30;;;4.80;;
22236;SDS011;11287;48.122;11.536;2023-05-20T00:05:14;6.75;;;4.88;;
22236;SDS011;11287;48.122;11.536;2023-05-20T00:07:40;5.32;;;4.47;;
22236;SDS011;11287;48.122;11.536;2023-05-20T00:10:05;6.35;;;4.95;;
22236;SDS011;11287;48.122;11.536;2023-05-20T00:12:31;5.20;;;4.70;;
22236;SDS011;11287;48.122;11.536;2023-05-20T00:14:56;7.90;;;5.20;;
22236;SDS011;11287;48.122;11.536;2023-05-20T00:17:22;6.75;;;4.82;;
22236;SDS011;11287;48.122;11.536;2023-05-20T00:19:47;6.30;;;4.82;;
22236;SDS011;11287;48.122;11.536;2023-05-20T00:22:13;6.95;;;4.70;;
22236;SDS011;11287;48.122;11.536;2023-05-20T00:24:38;6.60;;;4.65;;
22236;SDS011;11287;48.122;11.536;2023-05-20T00:27:03;7.03;;;4.82;;
22236;SDS011;11287;48.122;11.536;2023-05-20T00:29:29;5.70;;;5.07;;
22236;SDS011;11287;48.122;11.536;2023-05-20T00:31:54;6.40;;;5.15;;
22236;SDS011;11287;48.122;11.536;2023-05-20T00:34:20;5.88;;;4.82;;
22236;SDS011;11287;48.122;11.536;2023-05-20T00:36:45;5.75;;;4.63;;
22236;SDS011;11287;48.122;11.536;2023-05-20T00:39:10;6.45;;;4.82;;
22236;SDS011;11287;48.122;11.536;2023-05-20T00:41:36;5.55;;;4.82;;
22236;SDS011;11287;48.122;11.536;2023-05-20T00:44:02;5.82;;;5.05;;
22236;SDS011;11287;48.122;11.536;2023-05-20T00:46:27;5.30;;;4.78;;
22236;SDS011;11287;48.122;11.536;2023-05-20T00:48:53;5.38;;;4.88;;
22236;SDS011;11287;48.122;11.536;2023-05-20T00:51:19;6.22;;;5.32;;
22236;SDS011;11287;48.122;11.536;2023-05-20T00:53:44;8.13;;;5.70;;
22236;SDS011;11287;48.122;11.536;2023-05-20T00:56:10;5.80;;;5.05;;
22236;SDS011;11287;48.122;11.536;2023-05-20T00:58:36;5.97;;;5.38;;
22236;SDS011;11287;48.122;11.536;2023-05-20T01:01:01;6.65;;;5.70;;
22236;SDS011;11287;48.122;11.536;2023-05-20T01:03:28;6.00;;;5.40;;
22236;SDS011;11287;48.122;11.536;2023-05-20T01:05:53;7.22;;;5.47;;
22236;SDS011;11287;48.122;11.536;2023-05-20T01:08:19;5.93;;;5.25;;
22236;SDS011;11287;48.122;11.536;2023-05-20T01:10:46;8.15;;;5.97;;
22236;SDS011;11287;48.122;11.536;2023-05-20T01:13:14;7.07;;;6.03;;
22236;SDS011;11287;48.122;11.536;2023-05-20T01:15:41;6.38;;;5.68;;
22236;SDS011;11287;48.122;11.536;2023-05-20T01:18:07;8.13;;;5.40;;
22236;SDS011;11287;48.122;11.536;2023-05-20T01:20:34;6.70;;;6.00;;
22236;SDS011;11287;48.122;11.536;2023-05-20T01:23:01;6.32;;;5.72;;
22236;SDS011;11287;48.122;11.536;2023-05-20T01:25:26;7.00;;;5.95;;
22236;SDS011;11287;48.122;11.536;2023-05-20T01:27:53;9.27;;;6.43;;
22236;SDS011;11287;48.122;11.536;2023-05-20T01:30:19;7.22;;;6.13;;
22236;SDS011;11287;48.122;11.536;2023-05-20T01:32:56;7.97;;;6.35;;
22236;SDS011;11287;48.122;11.536;2023-05-20T01:35:25;6.85;;;6.15;;
22236;SDS011;11287;48.122;11.536;2023-05-20T01:37:51;7.47;;;6.47;;
22236;SDS011;11287;48.122;11.536;2023-05-20T01:40:16;7.43;;;6.22;;
22236;SDS011;11287;48.122;11.536;2023-05-20T01:42:42;8.55;;;6.53;;
22236;SDS011;11287;48.122;11.536;2023-05-20T01:45:09;7.65;;;6.50;;
22236;SDS011;11287;48.122;11.536;2023-05-20T01:47:35;9.18;;;6.68;;
22236;SDS011;11287;48.122;11.536;2023-05-20T01:50:00;8.65;;;6.78;;
22236;SDS011;11287;48.122;11.536;2023-05-20T01:52:25;7.82;;;6.35;;
22236;SDS011;11287;48.122;11.536;2023-05-20T01:54:50;7.45;;;6.25;;
22236;SDS011;11287;48.122;11.536;2023-05-20T01:57:17;7.30;;;6.47;;
22236;SDS011;11287;48.122;11.536;2023-05-20T01:59:43;10.02;;;6.93;;
22236;SDS011;11287;48.122;11.536;2023-05-20T02:02:08;9.13;;;7.05;;
22236;SDS011;11287;48.122;11.536;2023-05-20T02:04:34;8.65;;;7.18;;
22236;SDS011;11287;48.122;11.536;2023-05-20T02:06:59;9.80;;;7.45;;
22236;SDS011;11287;48.122;11.536;2023-05-20T02:09:25;8.23;;;7.43;;
22236;SDS011;11287;48.122;11.536;2023-05-20T02:11:50;9.38;;;7.97;;
22236;SDS011;11287;48.122;11.536;2023-05-20T02:14:15;9.95;;;7.60;;
22236;SDS011;11287;48.122;11.536;2023-05-20T02:16:41;10.38;;;7.82;;
22236;SDS011;11287;48.122;11.536;2023-05-20T02:19:06;9.95;;;8.27;;
22236;SDS011;11287;48.122;11.536;2023-05-20T02:21:36;10.15;;;8.30;;
22236;SDS011;11287;48.122;11.536;2023-05-20T02:24:02;9.88;;;8.25;;
22236;SDS011;11287;48.122;11.536;2023-05-20T02:26:29;9.52;;;8.05;;
22236;SDS011;11287;48.122;11.536;2023-05-20T02:28:54;9.60;;;8.00;;
22236;SDS011;11287;48.122;11.536;2023-05-20T02:31:20;9.35;;;8.18;;
22236;SDS011;11287;48.122;11.536;2023-05-20T02:33:46;10.63;;;8.73;;
22236;SDS011;11287;48.122;11.536;2023-05-20T02:36:11;13.27;;;9.00;;
22236;SDS011;11287;48.122;11.536;2023-05-20T02:38:37;10.32;;;8.70;;
22236;SDS011;11287;48.122;11.536;2023-05-20T02:41:02;10.60;;;8.73;;
22236;SDS011;11287;48.122;11.536;2023-05-20T02:43:28;11.82;;;9.10;;
22236;SDS011;11287;48.122;11.536;2023-05-20T02:45:54;10.27;;;9.18;;
22236;SDS011;11287;48.122;11.536;2023-05-20T02:48:20;11.43;;;9.57;;
22236;SDS011;11287;48.122;11.536;2023-05-20T02:50:45;13.93;;;9.45;;
22236;SDS011;11287;48.122;11.536;2023-05-20T02:53:11;10.35;;;9.15;;
22236;SDS011;11287;48.122;11.536;2023-05-20T02:55:36;12.50;;;9.32;;
22236;SDS011;11287;48.122;11.536;2023-05-20T02:58:01;14.63;;;10.35;;
22236;SDS011;11287;48.122;11.536;2023-05-20T03:00:27;13.50;;;10.40;;
22236;SDS011;11287;48.122;11.536;2023-05-20T03:02:55;14.23;;;10.80;;
22236;SDS011;11287;48.122;11.536;2023-05-20T03:05:20;15.73;;;11.10;;
22236;SDS011;11287;48.122;11.536;2023-05-20T03:07:46;13.38;;;9.98;;
22236;SDS011;11287;48.122;11.536;2023-05-20T03:10:12;13.05;;;10.88;;
22236;SDS011;11287;48.122;11.536;2023-05-20T03:12:37;17.75;;;10.68;;
22236;SDS011;11287;48.122;11.536;2023-05-20T03:15:03;22.55;;;11.07;;
22236;SDS011;11287;48.122;11.536;2023-05-20T03:17:28;18.00;;;12.25;;
22236;SDS011;11287;48.122;11.536;2023-05-20T03:19:54;17.48;;;12.85;;
22236;SDS011;11287;48.122;11.536;2023-05-20T03:22:20;17.35;;;12.55;;
22236;SDS011;11287;48.122;11.536;2023-05-20T03:24:45;22.98;;;13.55;;
22236;SDS011;11287;48.122;11.536;2023-05-20T03:27:10;20.90;;;13.20;;
22236;SDS011;11287;48.122;11.536;2023-05-20T03:29:36;19.98;;;13.52;;
22236;SDS011;11287;48.122;11.536;2023-05-20T03:32:01;23.83;;;13.88;;
22236;SDS011;11287;48.122;11.536;2023-05-20T03:34:26;25.35;;;14.88;;
22236;SDS011;11287;48.122;11.536;2023-05-20T03:36:54;27.60;;;15.25;;
22236;SDS011;11287;48.122;11.536;2023-05-20T03:39:19;22.50;;;14.27;;
22236;SDS011;11287;48.122;11.536;2023-05-20T03:41:45;22.27;;;15.32;;
22236;SDS011;11287;48.122;11.536;2023-05-20T03:44:10;21.60;;;13.93;;
22236;SDS011;11287;48.122;11.536;2023-05-20T03:46:35;24.60;;;14.00;;
22236;SDS011;11287;48.122;11.536;2023-05-20T03:49:01;22.92;;;13.80;;
22236;SDS011;11287;48.122;11.536;2023-05-20T03:51:26;23.17;;;14.55;;
22236;SDS011;11287;48.122;11.536;2023-05-20T03:53:52;24.10;;;15.18;;
22236;SDS011;11287;48.122;11.536;2023-05-20T03:56:17;25.40;;;16.65;;
22236;SDS011;11287;48.122;11.536;2023-05-20T03:58:42;26.50;;;16.73;;
22236;SDS011;11287;48.122;11.536;2023-05-20T04:01:08;26.77;;;16.80;;
22236;SDS011;11287;48.122;11.536;2023-05-20T04:03:33;27.05;;;17.13;;
22236;SDS011;11287;48.122;11.536;2023-05-20T04:05:58;27.23;;;17.88;;
22236;SDS011;11287;48.122;11.536;2023-05-20T04:08:24;27.20;;;16.40;;
22236;SDS011;11287;48.122;11.536;2023-05-20T04:10:55;26.25;;;15.98;;
22236;SDS011;11287;48.122;11.536;2023-05-20T04:13:21;27.75;;;17.02;;
22236;SDS011;11287;48.122;11.536;2023-05-20T04:15:46;26.05;;;16.73;;
22236;SDS011;11287;48.122;11.536;2023-05-20T04:18:12;30.00;;;16.42;;
22236;SDS011;11287;48.122;11.536;2023-05-20T04:20:37;24.23;;;16.15;;
22236;SDS011;11287;48.122;11.536;2023-05-20T04:23:05;23.88;;;14.93;;
22236;SDS011;11287;48.122;11.536;2023-05-20T04:25:30;22.27;;;15.48;;
22236;SDS011;11287;48.122;11.536;2023-05-20T04:27:56;25.85;;;15.90;;
22236;SDS011;11287;48.122;11.536;2023-05-20T04:30:21;24.67;;;15.50;;
22236;SDS011;11287;48.122;11.536;2023-05-20T04:32:47;26.42;;;16.30;;
22236;SDS011;11287;48.122;11.536;2023-05-20T04:35:14;24.67;;;15.95;;
22236;SDS011;11287;48.122;11.536;2023-05-20T04:37:40;22.88;;;15.35;;
22236;SDS011;11287;48.122;11.536;2023-05-20T04:40:11;24.52;;;15.13;;
22236;SDS011;11287;48.122;11.536;2023-05-20T04:42:37;25.25;;;15.75;;
22236;SDS011;11287;48.122;11.536;2023-05-20T04:45:03;27.48;;;16.90;;
22236;SDS011;11287;48.122;11.536;2023-05-20T04:47:30;29.85;;;17.38;;
22236;SDS011;11287;48.122;11.536;2023-05-20T04:49:56;27.00;;;16.80;;
22236;SDS011;11287;48.122;11.536;2023-05-20T04:52:23;24.25;;;16.65;;
22236;SDS011;11287;48.122;11.536;2023-05-20T04:54:49;23.33;;;15.60;;
22236;SDS011;11287;48.122;11.536;2023-05-20T04:57:15;26.27;;;16.75;;
22236;SDS011;11287;48.122;11.536;2023-05-20T04:59:41;25.67;;;16.17;;
22236;SDS011;11287;48.122;11.536;2023-05-20T05:02:07;26.35;;;17.05;;
22236;SDS011;11287;48.122;11.536;2023-05-20T05:04:32;28.40;;;17.83;;
22236;SDS011;11287;48.122;11.536;2023-05-20T05:06:57;28.00;;;18.90;;
22236;SDS011;11287;48.122;11.536;2023-05-20T05:09:23;27.50;;;17.30;;
22236;SDS011;11287;48.122;11.536;2023-05-20T05:11:48;33.88;;;18.10;;
22236;SDS011;11287;48.122;11.536;2023-05-20T05:14:13;24.60;;;15.88;;
22236;SDS011;11287;48.122;11.536;2023-05-20T05:16:39;23.35;;;16.38;;
22236;SDS011;11287;48.122;11.536;2023-05-20T05:19:04;26.05;;;16.58;;
22236;SDS011;11287;48.122;11.536;2023-05-20T05:21:29;28.88;;;16.58;;
22236;SDS011;11287;48.122;11.536;2023-05-20T05:23:56;24.63;;;16.88;;
22236;SDS011;11287;48.122;11.536;2023-05-20T05:26:22;24.33;;;16.80;;
22236;SDS011;11287;48.122;11.536;2023-05-20T05:28:47;27.00;;;17.08;;
22236;SDS011;11287;48.122;11.536;2023-05-20T05:31:12;25.48;;;16.90;;
22236;SDS011;11287;48.122;11.536;2023-05-20T05:33:37;26.88;;;16.90;;
22236;SDS011;11287;48.122;11.536;2023-05-20T05:36:03;27.63;;;17.40;;
22236;SDS011;11287;48.122;11.536;2023-05-20T05:38:29;24.38;;;16.73;;
22236;SDS011;11287;48.122;11.536;2023-05-20T05:40:54;26.23;;;17.08;;
22236;SDS011;11287;48.122;11.536;2023-05-20T05:43:20;26.88;;;16.38;;
22236;SDS011;11287;48.122;11.536;2023-05-20T05:45:45;23.38;;;15.73;;
22236;SDS011;11287;48.122;11.536;2023-05-20T05:48:10;23.27;;;16.58;;
22236;SDS011;11287;48.122;11.536;2023-05-20T05:50:36;23.98;;;16.30;;
22236;SDS011;11287;48.122;11.536;2023-05-20T05:53:01;22.77;;;16.63;;
22236;SDS011;11287;48.122;11.536;2023-05-20T05:55:27;22.33;;;15.45;;
22236;SDS011;11287;48.122;11.536;2023-05-20T05:57:52;24.17;;;15.25;;
22236;SDS011;11287;48.122;11.536;2023-05-20T06:00:18;25.55;;;16.15;;
22236;SDS011;11287;48.122;11.536;2023-05-20T06:02:43;23.73;;;15.50;;
22236;SDS011;11287;48.122;11.536;2023-05-20T06:05:09;24.13;;;14.43;;
22236;SDS011;11287;48.122;11.536;2023-05-20T06:07:35;21.10;;;14.48;;
22236;SDS011;11287;48.122;11.536;2023-05-20T06:10:00;21.20;;;14.82;;
22236;SDS011;11287;48.122;11.536;2023-05-20T06:12:25;22.92;;;14.52;;
22236;SDS011;11287;48.122;11.536;2023-05-20T06:14:51;20.98;;;14.85;;
22236;SDS011;11287;48.122;11.536;2023-05-20T06:17:16;19.25;;;13.95;;
22236;SDS011;11287;48.122;11.536;2023-05-20T06:19:41;19.48;;;13.95;;
22236;SDS011;11287;48.122;11.536;2023-05-20T06:22:07;20.73;;;14.10;;
22236;SDS011;11287;48.122;11.536;2023-05-20T06:24:33;18.27;;;13.98;;
22236;SDS011;11287;48.122;11.536;2023-05-20T06:26:58;18.08;;;13.27;;
22236;SDS011;11287;48.122;11.536;2023-05-20T06:29:24;20.50;;;13.70;;
22236;SDS011;11287;48.122;11.536;2023-05-20T06:31:49;17.88;;;12.98;;
22236;SDS011;11287;48.122;11.536;2023-05-20T06:34:14;17.92;;;13.32;;
22236;SDS011;11287;48.122;11.536;2023-05-20T06:36:40;18.77;;;14.00;;
22236;SDS011;11287;48.122;11.536;2023-05-20T06:39:05;20.30;;;14.38;;
22236;SDS011;11287;48.122;11.536;2023-05-20T06:41:36;21.77;;;14.43;;
22236;SDS011;11287;48.122;11.536;2023-05-20T06:44:01;18.40;;;13.55;;
22236;SDS011;11287;48.122;11.536;2023-05-20T06:46:27;20.67;;;13.70;;
22236;SDS011;11287;48.122;11.536;2023-05-20T06:48:52;21.75;;;13.95;;
22236;SDS011;11287;48.122;11.536;2023-05-20T06:51:17;19.83;;;12.82;;
22236;SDS011;11287;48.122;11.536;2023-05-20T06:53:43;17.92;;;13.73;;
22236;SDS011;11287;48.122;11.536;2023-05-20T06:56:08;21.50;;;14.25;;
22236;SDS011;11287;48.122;11.536;2023-05-20T06:58:33;17.73;;;13.70;;
22236;SDS011;11287;48.122;11.536;2023-05-20T07:00:58;18.98;;;13.40;;
22236;SDS011;11287;48.122;11.536;2023-05-20T07:03:24;22.38;;;14.48;;
22236;SDS011;11287;48.122;11.536;2023-05-20T07:05:49;21.27;;;13.98;;
22236;SDS011;11287;48.122;11.536;2023-05-20T07:08:15;21.77;;;14.68;;
22236;SDS011;11287;48.122;11.536;2023-05-20T07:10:40;23.70;;;15.57;;
22236;SDS011;11287;48.122;11.536;2023-05-20T07:13:05;20.05;;;13.63;;
22236;SDS011;11287;48.122;11.536;2023-05-20T07:15:31;20.98;;;14.13;;
22236;SDS011;11287;48.122;11.536;2023-05-20T07:17:56;19.75;;;14.10;;
22236;SDS011;11287;48.122;11.536;2023-05-20T07:20:21;21.00;;;14.20;;
22236;SDS011;11287;48.122;11.536;2023-05-20T07:22:47;22.85;;;14.77;;
22236;SDS011;11287;48.122;11.536;2023-05-20T07:25:14;22.25;;;14.95;;
22236;SDS011;11287;48.122;11.536;2023-05-20T07:27:40;21.00;;;14.30;;
22236;SDS011;11287;48.122;11.536;2023-05-20T07:30:05;22.73;;;14.82;;
22236;SDS011;11287;48.122;11.536;2023-05-20T07:32:31;23.92;;;14.43;;
22236;SDS011;11287;48.122;11.536;2023-05-20T07:34:56;22.40;;;14.23;;
22236;SDS011;11287;48.122;11.536;2023-05-20T07:37:21;22.17;;;14.18;;
22236;SDS011;11287;48.122;11.536;2023-05-20T07:39:47;25.02;;;14.48;;
22236;SDS011;11287;48.122;11.536;2023-05-20T07:42:12;23.27;;;14.85;;
22236;SDS011;11287;48.122;11.536;2023-05-20T07:44:40;20.25;;;14.68;;
22236;SDS011;11287;48.122;11.536;2023-05-20T07:47:05;23.48;;;15.18;;
22236;SDS011;11287;48.122;11.536;2023-05-20T07:49:31;19.55;;;13.98;;
22236;SDS011;11287;48.122;11.536;2023-05-20T07:51:56;18.88;;;13.35;;
22236;SDS011;11287;48.122;11.536;2023-05-20T07:54:21;18.95;;;13.85;;
22236;SDS011;11287;48.122;11.536;2023-05-20T07:56:47;19.52;;;14.65;;
22236;SDS011;11287;48.122;11.536;2023-05-20T07:59:12;20.42;;;14.32;;
22236;SDS011;11287;48.122;11.536;2023-05-20T08:01:39;17.50;;;14.23;;
22236;SDS011;11287;48.122;11.536;2023-05-20T08:04:05;19.30;;;13.85;;
22236;SDS011;11287;48.122;11.536;2023-05-20T08:06:30;18.33;;;12.30;;
22236;SDS011;11287;48.122;11.536;2023-05-20T08:08:56;18.45;;;12.95;;
22236;SDS011;11287;48.122;11.536;2023-05-20T08:11:21;17.85;;;13.07;;
22236;SDS011;11287;48.122;11.536;2023-05-20T08:13:47;17.50;;;13.25;;
22236;SDS011;11287;48.122;11.536;2023-05-20T08:16:13;13.95;;;11.63;;
22236;SDS011;11287;48.122;11.536;2023-05-20T08:18:38;19.52;;;12.95;;
22236;SDS011;11287;48.122;11.536;2023-05-20T08:21:04;16.38;;;12.52;;
22236;SDS011;11287;48.122;11.536;2023-05-20T08:23:31;16.60;;;11.90;;
22236;SDS011;11287;48.122;11.536;2023-05-20T08:25:57;17.08;;;13.43;;
22236;SDS011;11287;48.122;11.536;2023-05-20T08:28:26;14.10;;;10.77;;
22236;SDS011;11287;48.122;11.536;2023-05-20T08:30:51;13.70;;;11.38;;
22236;SDS011;11287;48.122;11.536;2023-05-20T08:33:17;12.75;;;10.82;;
22236;SDS011;11287;48.122;11.536;2023-05-20T08:35:43;13.98;;;11.18;;
22236;SDS011;11287;48.122;11.536;2023-05-20T08:38:09;13.90;;;11.10;;
22236;SDS011;11287;48.122;11.536;2023-05-20T08:40:34;13.43;;;10.68;;
22236;SDS011;11287;48.122;11.536;2023-05-20T08:43:00;13.05;;;11.68;;
22236;SDS011;11287;48.122;11.536;2023-05-20T08:45:25;11.85;;;10.05;;
22236;SDS011;11287;48.122;11.536;2023-05-20T08:47:52;11.65;;;10.48;;
22236;SDS011;11287;48.122;11.536;2023-05-20T08:50:18;11.32;;;9.23;;
22236;SDS011;11287;48.122;11.536;2023-05-20T08:52:44;14.45;;;10.10;;
22236;SDS011;11287;48.122;11.536;2023-05-20T08:55:14;11.18;;;9.27;;
22236;SDS011;11287;48.122;11.536;2023-05-20T08:57:47;10.80;;;8.98;;
22236;SDS011;11287;48.122;11.536;2023-05-20T09:00:14;9.45;;;8.55;;
22236;SDS011;11287;48.122;11.536;2023-05-20T09:02:41;9.25;;;8.15;;
22236;SDS011;11287;48.122;11.536;2023-05-20T09:05:08;9.30;;;8.40;;
22236;SDS011;11287;48.122;11.536;2023-05-20T09:07:34;10.73;;;8.43;;
22236;SDS011;11287;48.122;11.536;2023-05-20T09:10:00;8.50;;;7.68;;
22236;SDS011;11287;48.122;11.536;2023-05-20T09:12:25;8.65;;;7.75;;
22236;SDS011;11287;48.122;11.536;2023-05-20T09:14:50;8.80;;;7.78;;
22236;SDS011;11287;48.122;11.536;2023-05-20T09:17:16;9.75;;;7.40;;
22236;SDS011;11287;48.122;11.536;2023-05-20T09:19:46;8.15;;;7.35;;
22236;SDS011;11287;48.122;11.536;2023-05-20T09:22:13;9.20;;;8.00;;
22236;SDS011;11287;48.122;11.536;2023-05-20T09:24:38;7.50;;;6.70;;
22236;SDS011;11287;48.122;11.536;2023-05-20T09:27:05;8.25;;;7.00;;
22236;SDS011;11287;48.122;11.536;2023-05-20T09:29:32;7.82;;;7.03;;
22236;SDS011;11287;48.122;11.536;2023-05-20T09:32:00;10.10;;;6.88;;
22236;SDS011;11287;48.122;11.536;2023-05-20T09:34:25;7.85;;;6.13;;
22236;SDS011;11287;48.122;11.536;2023-05-20T09:36:51;8.38;;;5.90;;
22236;SDS011;11287;48.122;11.536;2023-05-20T09:39:18;7.97;;;5.93;;
22236;SDS011;11287;48.122;11.536;2023-05-20T09:41:52;7.78;;;5.75;;
22236;SDS011;11287;48.122;11.536;2023-05-20T09:44:20;7.13;;;5.30;;
22236;SDS011;11287;48.122;11.536;2023-05-20T09:46:46;9.15;;;5.18;;
22236;SDS011;11287;48.122;11.536;2023-05-20T09:49:12;6.15;;;4.93;;
22236;SDS011;11287;48.122;11.536;2023-05-20T09:51:38;6.00;;;5.50;;
22236;SDS011;11287;48.122;11.536;2023-05-20T09:54:05;5.35;;;4.85;;
22236;SDS011;11287;48.122;11.536;2023-05-20T09:56:32;5.57;;;5.00;;
22236;SDS011;11287;48.122;11.536;2023-05-20T09:58:58;4.57;;;4.18;;
22236;SDS011;11287;48.122;11.536;2023-05-20T10:01:24;4.10;;;3.70;;
22236;SDS011;11287;48.122;11.536;2023-05-20T10:03:51;4.50;;;4.13;;
22236;SDS011;11287;48.122;11.536;2023-05-20T10:09:13;4.82;;;4.32;;
22236;SDS011;11287;48.122;11.536;2023-05-20T10:15:21;4.40;;;4.00;;
22236;SDS011;11287;48.122;11.536;2023-05-20T10:20:19;7.65;;;4.00;;
22236;SDS011;11287;48.122;11.536;2023-05-20T10:22:53;6.15;;;4.28;;
22236;SDS011;11287;48.122;11.536;2023-05-20T10:25:26;4.40;;;3.95;;
22236;SDS011;11287;48.122;11.536;2023-05-20T10:28:02;7.60;;;3.87;;
22236;SDS011;11287;48.122;11.536;2023-05-20T10:30:34;4.30;;;3.90;;
22236;SDS011;11287;48.122;11.536;2023-05-20T10:33:02;4.68;;;4.28;;
22236;SDS011;11287;48.122;11.536;2023-05-20T10:35:29;4.68;;;4.00;;
22236;SDS011;11287;48.122;11.536;2023-05-20T10:38:07;6.53;;;4.05;;
22236;SDS011;11287;48.122;11.536;2023-05-20T10:40:34;5.13;;;4.25;;
22236;SDS011;11287;48.122;11.536;2023-05-20T10:43:07;4.57;;;4.18;;
22236;SDS011;11287;48.122;11.536;2023-05-20T10:45:34;4.00;;;3.70;;
22236;SDS011;11287;48.122;11.536;2023-05-20T10:48:01;4.35;;;3.95;;
22236;SDS011;11287;48.122;11.536;2023-05-20T10:50:33;3.83;;;3.50;;
22236;SDS011;11287;48.122;11.536;2023-05-20T10:55:34;3.88;;;2.90;;
22236;SDS011;11287;48.122;11.536;2023-05-20T10:58:01;3.97;;;2.80;;
22236;SDS011;11287;48.122;11.536;2023-05-20T11:00:26;2.85;;;2.65;;
22236;SDS011;11287;48.122;11.536;2023-05-20T11:02:52;3.28;;;2.97;;
22236;SDS011;11287;48.122;11.536;2023-05-20T11:05:19;3.22;;;2.95;;
22236;SDS011;11287;48.122;11.536;2023-05-20T11:07:44;3.05;;;2.58;;
22236;SDS011;11287;48.122;11.536;2023-05-20T11:10:10;3.22;;;2.92;;
22236;SDS011;11287;48.122;11.536;2023-05-20T11:12:35;3.20;;;2.88;;
22236;SDS011;11287;48.122;11.536;2023-05-20T11:15:01;3.08;;;2.67;;
22236;SDS011;11287;48.122;11.536;2023-05-20T11:17:27;3.10;;;2.80;;
22236;SDS011;11287;48.122;11.536;2023-05-20T11:19:52;2.90;;;2.70;;
22236;SDS011;11287;48.122;11.536;2023-05-20T11:22:17;3.42;;;3.13;;
22236;SDS011;11287;48.122;11.536;2023-05-20T11:24:43;3.65;;;3.15;;
22236;SDS011;11287;48.122;11.536;2023-05-20T11:27:08;3.03;;;2.73;;
22236;SDS011;11287;48.122;11.536;2023-05-20T11:29:33;3.40;;;2.80;;
22236;SDS011;11287;48.122;11.536;2023-05-20T11:31:59;3.33;;;2.90;;
22236;SDS011;11287;48.122;11.536;2023-05-20T11:34:25;3.17;;;2.75;;
22236;SDS011;11287;48.122;11.536;2023-05-20T11:37:00;3.80;;;2.70;;
22236;SDS011;11287;48.122;11.536;2023-05-20T11:39:32;2.85;;;2.65;;
22236;SDS011;11287;48.122;11.536;2023-05-20T11:41:58;4.30;;;2.78;;
22236;SDS011;11287;48.122;11.536;2023-05-20T11:44:23;3.78;;;2.75;;
22236;SDS011;11287;48.122;11.536;2023-05-20T11:47:02;3.72;;;3.42;;
22236;SDS011;11287;48.122;11.536;2023-05-20T11:49:29;3.53;;;3.30;;
22236;SDS011;11287;48.122;11.536;2023-05-20T11:52:06;3.60;;;3.30;;
22236;SDS011;11287;48.122;11.536;2023-05-20T11:54:34;5.38;;;3.65;;
22236;SDS011;11287;48.122;11.536;2023-05-20T11:57:00;4.03;;;3.67;;
22236;SDS011;11287;48.122;11.536;2023-05-20T11:59:28;3.05;;;2.85;;
22236;SDS011;11287;48.122;11.536;2023-05-20T12:01:54;4.15;;;3.30;;
22236;SDS011;11287;48.122;11.536;2023-05-20T12:04:20;3.00;;;2.80;;
22236;SDS011;11287;48.122;11.536;2023-05-20T12:06:46;4.18;;;2.70;;
22236;SDS011;11287;48.122;11.536;2023-05-20T12:09:11;3.33;;;3.03;;
22236;SDS011;11287;48.122;11.536;2023-05-20T12:11:38;3.40;;;3.10;;
22236;SDS011;11287;48.122;11.536;2023-05-20T12:14:05;3.28;;;2.97;;
22236;SDS011;11287;48.122;11.536;2023-05-20T12:16:31;4.53;;;2.70;;
22236;SDS011;11287;48.122;11.536;2023-05-20T12:18:57;3.75;;;2.60;;
22236;SDS011;11287;48.122;11.536;2023-05-20T12:21:23;3.75;;;3.03;;
22236;SDS011;11287;48.122;11.536;2023-05-20T12:23:48;4.17;;;3.27;;
22236;SDS011;11287;48.122;11.536;2023-05-20T12:26:13;4.05;;;3.00;;
22236;SDS011;11287;48.122;11.536;2023-05-20T12:28:39;4.00;;;2.80;;
22236;SDS011;11287;48.122;11.536;2023-05-20T12:31:04;3.10;;;2.85;;
22236;SDS011;11287;48.122;11.536;2023-05-20T12:33:48;3.30;;;3.00;;
22236;SDS011;11287;48.122;11.536;2023-05-20T12:36:13;5.97;;;2.92;;
22236;SDS011;11287;48.122;11.536;2023-05-20T12:38:39;3.63;;;2.25;;
22236;SDS011;11287;48.122;11.536;2023-05-20T12:41:04;4.30;;;3.20;;
22236;SDS011;11287;48.122;11.536;2023-05-20T12:43:32;2.70;;;2.50;;
22236;SDS011;11287;48.122;11.536;2023-05-20T12:45:57;3.17;;;2.88;;
22236;SDS011;11287;48.122;11.536;2023-05-20T12:48:22;3.83;;;3.08;;
22236;SDS011;11287;48.122;11.536;2023-05-20T12:50:48;4.75;;;3.20;;
22236;SDS011;11287;48.122;11.536;2023-05-20T12:53:13;4.35;;;3.58;;
22236;SDS011;11287;48.122;11.536;2023-05-20T12:55:38;3.00;;;2.80;;
22236;SDS011;11287;48.122;11.536;2023-05-20T12:58:05;3.60;;;3.30;;
22236;SDS011;11287;48.122;11.536;2023-05-20T13:00:34;3.10;;;2.90;;
22236;SDS011;11287;48.122;11.536;2023-05-20T13:03:05;4.25;;;3.78;;
22236;SDS011;11287;48.122;11.536;2023-05-20T13:05:32;4.22;;;3.83;;
22236;SDS011;11287;48.122;11.536;2023-05-20T13:07:57;4.47;;;3.60;;
22236;SDS011;11287;48.122;11.536;2023-05-20T13:10:25;4.47;;;3.60;;
22236;SDS011;11287;48.122;11.536;2023-05-20T13:12:51;6.53;;;4.13;;
22236;SDS011;11287;48.122;11.536;2023-05-20T13:15:17;7.75;;;5.07;;
22236;SDS011;11287;48.122;11.536;2023-05-20T13:17:42;8.90;;;5.45;;
22236;SDS011;11287;48.122;11.536;2023-05-20T13:20:18;6.00;;;5.10;;
22236;SDS011;11287;48.122;11.536;2023-05-20T13:22:43;6.82;;;6.18;;
22236;SDS011;11287;48.122;11.536;2023-05-20T13:25:08;6.07;;;5.47;;
22236;SDS011;11287;48.122;11.536;2023-05-20T13:27:34;7.60;;;6.07;;
22236;SDS011;11287;48.122;11.536;2023-05-20T13:30:05;6.30;;;5.68;;
22236;SDS011;11287;48.122;11.536;2023-05-20T13:32:31;7.18;;;5.97;;
22236;SDS011;11287;48.122;11.536;2023-05-20T13:34:57;7.17;;;5.63;;
22236;SDS011;11287;48.122;11.536;2023-05-20T13:37:23;8.18;;;5.45;;
22236;SDS011;11287;48.122;11.536;2023-05-20T13:39:49;6.32;;;5.72;;
22236;SDS011;11287;48.122;11.536;2023-05-20T13:42:17;9.65;;;5.50;;
22236;SDS011;11287;48.122;11.536;2023-05-20T13:44:42;6.22;;;5.50;;
22236;SDS011;11287;48.122;11.536;2023-05-20T13:47:08;7.43;;;5.90;;
22236;SDS011;11287;48.122;11.536;2023-05-20T13:49:36;8.07;;;6.25;;
22236;SDS011;11287;48.122;11.536;2023-05-20T13:52:04;7.28;;;6.13;;
22236;SDS011;11287;48.122;11.536;2023-05-20T13:54:30;6.82;;;6.22;;
22236;SDS011;11287;48.122;11.536;2023-05-20T13:56:56;7.15;;;6.22;;
22236;SDS011;11287;48.122;11.536;2023-05-20T13:59:23;9.20;;;6.05;;
22236;SDS011;11287;48.122;11.536;2023-05-20T14:01:48;9.82;;;6.28;;
22236;SDS011;11287;48.122;11.536;2023-05-20T14:04:14;8.17;;;5.77;;
22236;SDS011;11287;48.122;11.536;2023-05-20T14:06:48;8.20;;;6.00;;
22236;SDS011;11287;48.122;11.536;2023-05-20T14:09:13;8.68;;;7.10;;
22236;SDS011;11287;48.122;11.536;2023-05-20T14:14:31;7.10;;;6.40;;
22236;SDS011;11287;48.122;11.536;2023-05-20T14:19:42;7.00;;;5.82;;
22236;SDS011;11287;48.122;11.536;2023-05-20T14:22:09;7.78;;;6.47;;
22236;SDS011;11287;48.122;11.536;2023-05-20T14:24:36;8.43;;;6.43;;
22236;SDS011;11287;48.122;11.536;2023-05-20T14:27:01;8.20;;;6.77;;
22236;SDS011;11287;48.122;11.536;2023-05-20T14:29:32;8.32;;;6.55;;
22236;SDS011;11287;48.122;11.536;2023-05-20T14:32:01;7.57;;;6.40;;
22236;SDS011;11287;48.122;11.536;2023-05-20T14:34:36;8.25;;;6.45;;